Time;durP1;ratioP1;P1;durP2;ratioP2;P2;SDS_P1;SDS_P2;PMS_P1;PMS_P2;Temp;Humidity;BMP_temperature;BMP_pressure;BME280_temperature;BME280_humidity;BME280_pressure;Samples;Min_cycle;Max_cycle;Signal;HPM_P1;HPM_P2
2020/12/09 00:01:49;;;;;;;34.95;19.77;;;;;;;;;;5073871;28;20112;-78
2020/12/09 00:04:16;;;;;;;34.92;18.88;;;;;;;;;;5073769;28;20027;-81
2020/12/09 00:06:42;;;;;;;33.75;19.88;;;;;;;;;;5073748;28;20025;-81
2020/12/09 00:09:09;;;;;;;38.88;19.75;;;;;;;;;;5073362;28;20079;-82
2020/12/09 00:11:36;;;;;;;36.10;19.80;;;;;;;;;;5073279;28;20113;-81
2020/12/09 00:14:02;;;;;;;31.48;18.08;;;;;;;;;;5073372;28;20028;-85
2020/12/09 00:16:28;;;;;;;35.20;18.70;;;;;;;;;;5073733;28;20400;-79
2020/12/09 00:18:54;;;;;;;34.67;18.85;;;;;;;;;;5073331;28;20028;-80
2020/12/09 00:21:21;;;;;;;30.02;17.38;;;;;;;;;;5073207;28;20024;-83
2020/12/09 00:23:48;;;;;;;29.73;16.45;;;;;;;;;;5084910;28;20020;-86
2020/12/09 00:26:17;;;;;;;30.08;15.70;;;;;;;;;;5092657;28;20104;-80
2020/12/09 00:28:46;;;;;;;30.58;16.35;;;;;;;;;;5093010;28;20434;-72
2020/12/09 00:31:15;;;;;;;30.05;16.70;;;;;;;;;;5093176;28;20506;-75
2020/12/09 00:33:41;;;;;;;31.40;17.58;;;;;;;;;;5093295;28;20024;-84
2020/12/09 00:36:08;;;;;;;27.95;15.82;;;;;;;;;;5093351;28;20012;-86
2020/12/09 00:38:34;;;;;;;29.00;16.08;;;;;;;;;;5093257;28;20046;-86
2020/12/09 00:41:00;;;;;;;27.90;15.25;;;;;;;;;;5093364;28;20103;-83
2020/12/09 00:43:26;;;;;;;29.60;16.33;;;;;;;;;;5093300;28;20039;-85
2020/12/09 00:45:52;;;;;;;30.60;17.05;;;;;;;;;;5089588;28;20019;-79
2020/12/09 00:48:18;;;;;;;31.80;16.25;;;;;;;;;;5072934;28;20085;-82
2020/12/09 00:50:44;;;;;;;28.98;16.30;;;;;;;;;;5072724;28;20090;-83
2020/12/09 00:53:10;;;;;;;36.58;18.42;;;;;;;;;;5072761;28;20024;-84
2020/12/09 00:55:36;;;;;;;39.42;19.70;;;;;;;;;;5073025;28;20016;-85
2020/12/09 00:58:02;;;;;;;33.20;18.48;;;;;;;;;;5072761;28;20020;-87
2020/12/09 01:00:28;;;;;;;34.85;19.05;;;;;;;;;;5072764;28;20052;-85
2020/12/09 01:02:54;;;;;;;39.63;20.58;;;;;;;;;;5072776;28;20060;-79
2020/12/09 01:05:20;;;;;;;38.22;19.33;;;;;;;;;;5072707;28;20024;-83
2020/12/09 01:07:46;;;;;;;33.35;19.20;;;;;;;;;;5072403;28;20035;-87
2020/12/09 01:10:12;;;;;;;37.08;19.58;;;;;;;;;;5072573;28;20034;-86
2020/12/09 01:12:39;;;;;;;31.45;17.17;;;;;;;;;;5072491;28;20024;-77
2020/12/09 01:15:06;;;;;;;36.80;19.55;;;;;;;;;;5072529;28;20028;-79
2020/12/09 01:17:32;;;;;;;35.55;19.00;;;;;;;;;;5072345;28;20020;-80
2020/12/09 01:19:58;;;;;;;34.25;18.15;;;;;;;;;;5072439;28;20024;-82
2020/12/09 01:22:24;;;;;;;30.67;17.80;;;;;;;;;;5054813;28;20017;-78
2020/12/09 01:24:50;;;;;;;34.17;18.55;;;;;;;;;;5072422;28;20016;-86
2020/12/09 01:27:16;;;;;;;31.48;17.77;;;;;;;;;;5072534;28;20020;-81
2020/12/09 01:29:42;;;;;;;36.58;18.52;;;;;;;;;;5072724;28;20112;-87
2020/12/09 01:32:08;;;;;;;38.50;18.83;;;;;;;;;;5072665;28;20056;-79
2020/12/09 01:34:34;;;;;;;36.22;19.50;;;;;;;;;;5072916;28;20028;-76
2020/12/09 01:37:00;;;;;;;31.70;17.70;;;;;;;;;;5072605;28;20028;-82
2020/12/09 01:39:27;;;;;;;31.88;18.42;;;;;;;;;;5072532;28;20035;-83
2020/12/09 01:41:53;;;;;;;33.13;18.23;;;;;;;;;;5072688;28;20024;-84
2020/12/09 01:44:19;;;;;;;34.92;18.30;;;;;;;;;;5072442;28;20043;-87
2020/12/09 01:46:46;;;;;;;32.15;17.85;;;;;;;;;;5072529;28;20027;-82
2020/12/09 01:49:12;;;;;;;35.80;18.88;;;;;;;;;;5072440;28;20426;-77
2020/12/09 01:51:39;;;;;;;31.95;18.25;;;;;;;;;;5072577;28;20469;-84
2020/12/09 01:54:05;;;;;;;33.85;18.80;;;;;;;;;;5072570;28;20021;-86
2020/12/09 01:56:31;;;;;;;36.00;19.45;;;;;;;;;;5072636;28;20465;-87
2020/12/09 01:58:57;;;;;;;37.67;18.00;;;;;;;;;;5076624;28;20070;-79
2020/12/09 02:01:23;;;;;;;34.03;19.27;;;;;;;;;;5076520;28;20024;-86
2020/12/09 02:03:50;;;;;;;33.05;18.63;;;;;;;;;;5076676;28;20023;-85
2020/12/09 02:06:17;;;;;;;36.67;18.08;;;;;;;;;;5095583;28;20024;-81
2020/12/09 02:08:43;;;;;;;32.13;17.95;;;;;;;;;;5096501;28;20040;-83
2020/12/09 02:11:09;;;;;;;35.58;17.65;;;;;;;;;;5096503;28;20051;-82
2020/12/09 02:13:41;;;;;;;30.75;18.10;;;;;;;;;;5096560;28;20038;-86
2020/12/09 02:16:07;;;;;;;30.92;17.88;;;;;;;;;;5096458;28;20032;-85
2020/12/09 02:18:33;;;;;;;34.13;19.35;;;;;;;;;;5096695;28;20077;-87
2020/12/09 02:20:59;;;;;;;34.15;18.45;;;;;;;;;;5096747;28;20020;-87
2020/12/09 02:23:25;;;;;;;38.08;20.25;;;;;;;;;;5096275;28;20024;-84
2020/12/09 02:25:51;;;;;;;36.17;20.48;;;;;;;;;;5096078;28;20012;-85
2020/12/09 02:28:17;;;;;;;34.03;18.85;;;;;;;;;;5096063;28;20028;-83
2020/12/09 02:30:43;;;;;;;34.58;18.80;;;;;;;;;;5096422;28;20027;-85
2020/12/09 02:33:09;;;;;;;33.83;19.15;;;;;;;;;;5093968;28;20077;-86
2020/12/09 02:35:35;;;;;;;34.05;18.98;;;;;;;;;;5075872;28;20032;-86
2020/12/09 02:38:01;;;;;;;33.13;18.50;;;;;;;;;;5075922;28;20020;-83
2020/12/09 02:40:27;;;;;;;35.45;19.58;;;;;;;;;;5075792;28;20473;-82
2020/12/09 02:42:54;;;;;;;36.80;19.60;;;;;;;;;;5075703;28;20033;-86
2020/12/09 02:45:20;;;;;;;37.97;19.38;;;;;;;;;;5075525;28;20031;-83
2020/12/09 02:47:46;;;;;;;39.28;20.45;;;;;;;;;;5075707;28;20430;-82
2020/12/09 02:50:12;;;;;;;37.70;20.45;;;;;;;;;;5075652;28;20076;-79
2020/12/09 02:52:38;;;;;;;34.95;19.83;;;;;;;;;;5075488;28;20032;-85
2020/12/09 02:55:04;;;;;;;36.35;20.05;;;;;;;;;;5075473;28;20218;-79
2020/12/09 02:57:30;;;;;;;37.45;19.58;;;;;;;;;;5075755;28;20538;-84
2020/12/09 02:59:56;;;;;;;34.22;18.45;;;;;;;;;;5075478;28;20530;-82
2020/12/09 03:02:22;;;;;;;38.30;19.15;;;;;;;;;;5075482;28;20035;-89
2020/12/09 03:04:48;;;;;;;38.55;18.40;;;;;;;;;;5075284;28;20031;-79
2020/12/09 03:07:14;;;;;;;32.03;18.55;;;;;;;;;;5075280;28;20028;-84
2020/12/09 03:09:40;;;;;;;34.80;18.58;;;;;;;;;;5073772;28;20028;-83
2020/12/09 03:12:06;;;;;;;34.85;18.63;;;;;;;;;;5075349;28;20052;-86
2020/12/09 03:14:32;;;;;;;35.78;19.60;;;;;;;;;;5075456;28;20024;-85
2020/12/09 03:16:58;;;;;;;36.60;18.35;;;;;;;;;;5075072;28;20472;-81
2020/12/09 03:19:24;;;;;;;34.30;19.52;;;;;;;;;;5077389;28;20028;-82
2020/12/09 03:21:50;;;;;;;33.08;18.17;;;;;;;;;;5077363;28;20473;-80
2020/12/09 03:24:16;;;;;;;33.90;19.40;;;;;;;;;;5095477;28;20034;-84
2020/12/09 03:26:42;;;;;;;34.58;19.48;;;;;;;;;;5095268;28;20051;-82
2020/12/09 03:29:09;;;;;;;32.58;19.55;;;;;;;;;;5094952;28;20083;-83
2020/12/09 03:31:35;;;;;;;32.80;18.90;;;;;;;;;;5095117;28;20020;-86
2020/12/09 03:34:01;;;;;;;34.47;18.65;;;;;;;;;;5095245;28;20078;-80
2020/12/09 03:36:27;;;;;;;35.10;18.95;;;;;;;;;;5095202;28;20051;-87
2020/12/09 03:38:53;;;;;;;31.95;18.95;;;;;;;;;;5077285;28;20028;-88
2020/12/09 03:41:19;;;;;;;33.92;17.70;;;;;;;;;;5095512;28;20024;-89
2020/12/09 03:43:45;;;;;;;39.25;19.95;;;;;;;;;;5095192;28;20028;-77
2020/12/09 03:46:11;;;;;;;35.10;18.60;;;;;;;;;;5094762;28;20077;-85
2020/12/09 03:48:37;;;;;;;34.17;18.50;;;;;;;;;;5094931;28;20546;-87
2020/12/09 03:51:05;;;;;;;33.28;19.55;;;;;;;;;;5095071;28;20103;-89
2020/12/09 03:53:34;;;;;;;39.05;19.60;;;;;;;;;;5095014;28;20016;-84
2020/12/09 03:56:00;;;;;;;34.28;18.73;;;;;;;;;;5094273;28;20035;-85
2020/12/09 03:58:26;;;;;;;31.75;18.13;;;;;;;;;;5094671;28;20105;-83
2020/12/09 04:00:54;;;;;;;33.78;19.08;;;;;;;;;;5094276;28;20027;-88
2020/12/09 04:03:23;;;;;;;33.13;18.20;;;;;;;;;;5094455;28;20372;-89
2020/12/09 04:05:49;;;;;;;32.63;18.50;;;;;;;;;;5094609;28;20102;-82
2020/12/09 04:08:20;;;;;;;34.65;18.50;;;;;;;;;;5087401;28;20060;-89
2020/12/09 04:10:46;;;;;;;36.95;19.45;;;;;;;;;;5056578;28;20051;-90
2020/12/09 04:13:12;;;;;;;32.63;18.15;;;;;;;;;;5074385;28;20024;-87
2020/12/09 04:15:38;;;;;;;33.40;18.08;;;;;;;;;;5073739;28;20017;-84
2020/12/09 04:18:05;;;;;;;32.53;17.75;;;;;;;;;;5074160;28;20025;-88
2020/12/09 04:20:31;;;;;;;33.08;17.88;;;;;;;;;;5058758;28;20118;-87
2020/12/09 04:22:57;;;;;;;32.63;18.73;;;;;;;;;;5073711;28;20025;-91
2020/12/09 04:25:23;;;;;;;32.53;17.60;;;;;;;;;;5055397;28;20024;-86
2020/12/09 04:27:49;;;;;;;37.42;20.35;;;;;;;;;;5056139;28;20029;-84
2020/12/09 04:30:15;;;;;;;31.58;17.80;;;;;;;;;;5073849;28;20032;-90
2020/12/09 04:32:41;;;;;;;35.40;19.45;;;;;;;;;;5073686;28;20017;-85
2020/12/09 04:35:08;;;;;;;35.03;18.52;;;;;;;;;;5055439;28;20036;-85
2020/12/09 04:37:34;;;;;;;30.55;17.48;;;;;;;;;;5073757;28;20016;-83
2020/12/09 04:40:06;;;;;;;32.25;18.52;;;;;;;;;;5074349;28;20020;-92
2020/12/09 04:42:32;;;;;;;35.67;18.63;;;;;;;;;;5076680;28;20107;-89
2020/12/09 04:44:58;;;;;;;36.50;18.48;;;;;;;;;;5073319;28;20025;-84
2020/12/09 04:47:28;;;;;;;36.05;18.00;;;;;;;;;;5057609;28;20044;-88
2020/12/09 04:50:15;;;;;;;31.38;17.83;;;;;;;;;;5074761;28;20081;-89
2020/12/09 04:53:02;;;;;;;33.95;17.55;;;;;;;;;;5072848;28;20393;-88
2020/12/09 04:55:30;;;;;;;29.13;16.27;;;;;;;;;;5073459;28;20047;-86
2020/12/09 04:57:56;;;;;;;37.00;18.38;;;;;;;;;;5055247;28;20078;-91
2020/12/09 05:00:23;;;;;;;30.42;17.13;;;;;;;;;;5073570;28;20020;-86
2020/12/09 05:02:53;;;;;;;29.25;16.52;;;;;;;;;;5073271;28;20028;-87
2020/12/09 05:05:23;;;;;;;29.20;16.30;;;;;;;;;;5055689;28;20442;-84
2020/12/09 05:07:50;;;;;;;28.40;15.85;;;;;;;;;;5073302;28;20021;-85
2020/12/09 05:10:17;;;;;;;26.75;15.07;;;;;;;;;;5073291;28;20113;-91
2020/12/09 05:12:51;;;;;;;31.52;17.17;;;;;;;;;;5073112;28;20479;-90
2020/12/09 05:15:19;;;;;;;30.00;17.85;;;;;;;;;;5055627;28;20369;-88
2020/12/09 05:18:08;;;;;;;29.92;16.80;;;;;;;;;;5072521;28;20048;-83
2020/12/09 05:20:35;;;;;;;27.58;17.00;;;;;;;;;;5071753;28;20492;-89
2020/12/09 05:23:08;;;;;;;33.25;17.70;;;;;;;;;;5072983;28;20078;-93
2020/12/09 05:25:38;;;;;;;32.93;17.90;;;;;;;;;;5073235;28;20031;-85
2020/12/09 05:28:05;;;;;;;39.05;21.08;;;;;;;;;;5073265;28;20119;-92
2020/12/09 05:30:45;;;;;;;35.72;19.30;;;;;;;;;;5073184;28;20032;-88
2020/12/09 05:33:15;;;;;;;31.15;17.40;;;;;;;;;;5072116;28;20047;-81
2020/12/09 05:35:42;;;;;;;30.35;16.65;;;;;;;;;;5073135;28;20495;-82
2020/12/09 05:38:16;;;;;;;37.85;19.63;;;;;;;;;;5055499;28;20025;-89
2020/12/09 05:40:42;;;;;;;32.70;18.02;;;;;;;;;;5073161;28;20052;-84
2020/12/09 05:43:09;;;;;;;33.25;18.00;;;;;;;;;;5073128;28;20025;-86
2020/12/09 05:45:35;;;;;;;33.65;18.23;;;;;;;;;;5073218;28;20035;-84
2020/12/09 05:48:17;;;;;;;31.27;17.42;;;;;;;;;;5072948;28;20028;-87
2020/12/09 05:51:00;;;;;;;34.53;19.15;;;;;;;;;;5072810;28;20036;-89
2020/12/09 05:53:26;;;;;;;36.05;18.73;;;;;;;;;;5073120;28;20111;-85
2020/12/09 05:56:08;;;;;;;36.22;18.35;;;;;;;;;;5072575;28;20503;-91
2020/12/09 05:58:34;;;;;;;33.88;18.73;;;;;;;;;;5073113;28;20017;-82
2020/12/09 06:01:08;;;;;;;39.60;20.35;;;;;;;;;;5072711;28;20029;-88
2020/12/09 06:03:35;;;;;;;33.58;19.55;;;;;;;;;;5072916;28;20097;-82
2020/12/09 06:06:08;;;;;;;31.73;19.00;;;;;;;;;;5072991;28;20024;-90
2020/12/09 06:08:40;;;;;;;36.58;19.60;;;;;;;;;;5072783;28;20051;-88
2020/12/09 06:11:07;;;;;;;41.35;20.55;;;;;;;;;;5051223;28;20077;-87
2020/12/09 06:13:33;;;;;;;34.25;20.30;;;;;;;;;;5052960;28;20068;-89
2020/12/09 06:16:00;;;;;;;42.75;21.30;;;;;;;;;;5052779;28;20025;-89
2020/12/09 06:18:27;;;;;;;47.03;21.15;;;;;;;;;;5052435;28;20029;-84
2020/12/09 06:20:53;;;;;;;38.28;20.83;;;;;;;;;;5053162;28;20029;-92
2020/12/09 06:23:19;;;;;;;47.80;23.05;;;;;;;;;;5052989;28;20025;-88
2020/12/09 06:25:46;;;;;;;38.05;21.52;;;;;;;;;;5052465;28;20538;-86
2020/12/09 06:28:20;;;;;;;35.33;19.98;;;;;;;;;;5052416;28;20491;-81
2020/12/09 06:30:46;;;;;;;35.08;19.83;;;;;;;;;;5052600;28;20032;-89
2020/12/09 06:33:12;;;;;;;39.55;20.90;;;;;;;;;;5052542;28;20051;-87
2020/12/09 06:35:39;;;;;;;37.80;20.83;;;;;;;;;;5052557;28;20473;-89
2020/12/09 06:38:08;;;;;;;41.30;22.40;;;;;;;;;;5052574;28;20052;-85
2020/12/09 06:40:38;;;;;;;32.58;19.13;;;;;;;;;;5052883;28;20131;-90
2020/12/09 06:43:07;;;;;;;37.38;20.13;;;;;;;;;;5053474;28;20492;-86
2020/12/09 06:45:42;;;;;;;38.85;21.08;;;;;;;;;;5055859;28;20473;-82
2020/12/09 06:48:09;;;;;;;44.13;21.20;;;;;;;;;;5055668;28;20033;-78
2020/12/09 06:50:35;;;;;;;37.38;21.25;;;;;;;;;;5055796;28;20036;-86
2020/12/09 06:53:17;;;;;;;39.17;20.65;;;;;;;;;;5054288;28;20025;-80
2020/12/09 06:55:43;;;;;;;37.95;20.27;;;;;;;;;;5055642;28;20017;-86
2020/12/09 06:58:22;;;;;;;37.33;20.83;;;;;;;;;;5055670;28;20036;-86
2020/12/09 07:00:58;;;;;;;35.00;19.80;;;;;;;;;;5055567;28;20430;-86
2020/12/09 07:03:25;;;;;;;36.42;20.02;;;;;;;;;;5055713;28;20151;-85
2020/12/09 07:05:52;;;;;;;36.15;19.73;;;;;;;;;;5055384;28;20047;-87
2020/12/09 07:08:18;;;;;;;34.97;19.73;;;;;;;;;;5055261;28;20045;-86
2020/12/09 07:10:44;;;;;;;35.28;20.15;;;;;;;;;;5053983;28;20049;-87
2020/12/09 07:13:14;;;;;;;43.85;21.00;;;;;;;;;;5055150;28;20037;-85
2020/12/09 07:15:45;;;;;;;43.35;20.83;;;;;;;;;;5055017;28;20128;-87
2020/12/09 07:18:11;;;;;;;40.38;22.02;;;;;;;;;;5053593;28;20078;-82
2020/12/09 07:20:37;;;;;;;35.35;20.23;;;;;;;;;;5054981;28;20055;-92
2020/12/09 07:23:04;;;;;;;35.97;19.48;;;;;;;;;;5056182;28;20021;-93
2020/12/09 07:25:30;;;;;;;36.47;20.45;;;;;;;;;;5055621;28;20032;-79
2020/12/09 07:27:57;;;;;;;36.83;18.90;;;;;;;;;;5055048;28;20076;-83
2020/12/09 07:30:23;;;;;;;37.58;19.77;;;;;;;;;;5055194;28;20116;-83
2020/12/09 07:32:50;;;;;;;40.17;19.40;;;;;;;;;;5055141;28;20100;-89
2020/12/09 07:35:17;;;;;;;34.80;20.00;;;;;;;;;;5054923;28;20029;-81
2020/12/09 07:37:45;;;;;;;42.05;19.58;;;;;;;;;;5054950;28;20021;-84
2020/12/09 07:40:24;;;;;;;37.38;20.55;;;;;;;;;;5054945;28;20108;-82
2020/12/09 07:43:00;;;;;;;38.83;20.67;;;;;;;;;;5054912;28;20104;-84
2020/12/09 07:45:26;;;;;;;41.00;21.92;;;;;;;;;;5054856;28;20029;-86
2020/12/09 07:47:58;;;;;;;38.28;21.58;;;;;;;;;;5054344;28;20029;-88
2020/12/09 07:50:24;;;;;;;40.15;21.08;;;;;;;;;;5054471;28;20036;-85
2020/12/09 07:52:50;;;;;;;40.35;21.17;;;;;;;;;;5054690;28;20419;-80
2020/12/09 07:55:18;;;;;;;36.78;20.10;;;;;;;;;;5053072;28;20487;-85
2020/12/09 07:57:44;;;;;;;40.47;21.13;;;;;;;;;;5054502;28;20362;-84
2020/12/09 08:00:11;;;;;;;39.42;20.65;;;;;;;;;;5054736;28;20542;-86
2020/12/09 08:02:37;;;;;;;40.78;22.55;;;;;;;;;;5054240;28;20028;-83
2020/12/09 08:05:12;;;;;;;43.25;23.08;;;;;;;;;;5054477;28;20032;-83
2020/12/09 08:07:49;;;;;;;44.00;22.92;;;;;;;;;;5054006;28;20150;-82
2020/12/09 08:10:16;;;;;;;40.90;21.70;;;;;;;;;;5058878;28;20139;-81
2020/12/09 08:12:43;;;;;;;42.78;23.60;;;;;;;;;;5073831;28;20071;-84
2020/12/09 08:15:09;;;;;;;43.45;23.48;;;;;;;;;;5073701;28;20025;-84
2020/12/09 08:17:36;;;;;;;45.15;22.95;;;;;;;;;;5073726;28;20035;-81
2020/12/09 08:20:05;;;;;;;40.55;21.92;;;;;;;;;;5073673;28;20099;-86
2020/12/09 08:22:31;;;;;;;44.33;23.33;;;;;;;;;;5073662;28;20021;-82
2020/12/09 08:25:01;;;;;;;44.47;24.17;;;;;;;;;;5073492;28;20063;-77
2020/12/09 08:27:27;;;;;;;43.08;21.25;;;;;;;;;;5073406;28;20105;-75
2020/12/09 08:29:53;;;;;;;42.55;22.63;;;;;;;;;;5073044;28;20036;-82
2020/12/09 08:32:19;;;;;;;43.22;22.42;;;;;;;;;;5073099;28;20032;-82
2020/12/09 08:34:45;;;;;;;52.25;27.02;;;;;;;;;;5073524;28;20024;-80
2020/12/09 08:37:17;;;;;;;44.15;22.23;;;;;;;;;;5072975;28;20028;-81
2020/12/09 08:39:43;;;;;;;50.42;24.77;;;;;;;;;;5072978;28;20104;-74
2020/12/09 08:42:19;;;;;;;40.75;23.20;;;;;;;;;;5073003;28;20475;-74
2020/12/09 08:44:45;;;;;;;45.17;23.50;;;;;;;;;;5072986;28;20029;-79
2020/12/09 08:47:11;;;;;;;48.65;23.10;;;;;;;;;;5072712;28;20032;-76
2020/12/09 08:49:37;;;;;;;59.53;28.33;;;;;;;;;;5072619;28;20039;-77
2020/12/09 08:52:03;;;;;;;46.80;25.48;;;;;;;;;;5055136;28;20017;-79
2020/12/09 08:54:29;;;;;;;43.58;24.10;;;;;;;;;;5054833;28;20028;-82
2020/12/09 08:56:55;;;;;;;43.47;24.17;;;;;;;;;;5072660;28;20020;-77
2020/12/09 08:59:21;;;;;;;41.50;23.88;;;;;;;;;;5072695;28;20013;-77
2020/12/09 09:01:47;;;;;;;48.88;24.67;;;;;;;;;;5072482;28;20017;-73
2020/12/09 09:04:15;;;;;;;51.80;26.25;;;;;;;;;;5072689;28;20013;-75
2020/12/09 09:06:41;;;;;;;55.15;28.85;;;;;;;;;;5072563;28;20059;-76
2020/12/09 09:09:07;;;;;;;62.83;29.17;;;;;;;;;;5072328;28;20028;-77
2020/12/09 09:11:34;;;;;;;66.53;32.03;;;;;;;;;;5072572;28;20047;-75
2020/12/09 09:14:00;;;;;;;64.07;30.30;;;;;;;;;;5072687;28;20361;-77
2020/12/09 09:16:26;;;;;;;61.78;29.52;;;;;;;;;;5054540;28;20017;-76
2020/12/09 09:18:52;;;;;;;51.97;27.25;;;;;;;;;;5072315;28;20108;-76
2020/12/09 09:21:19;;;;;;;47.40;26.00;;;;;;;;;;5054713;28;20409;-74
2020/12/09 09:23:45;;;;;;;53.38;27.83;;;;;;;;;;5072330;28;20025;-82
2020/12/09 09:26:11;;;;;;;52.00;26.90;;;;;;;;;;5072375;28;20468;-76
2020/12/09 09:28:38;;;;;;;63.38;29.65;;;;;;;;;;5072212;28;20124;-77
2020/12/09 09:31:04;;;;;;;66.13;31.95;;;;;;;;;;5072403;28;20021;-75
2020/12/09 09:33:30;;;;;;;69.13;33.58;;;;;;;;;;5072511;28;20016;-74
2020/12/09 09:35:56;;;;;;;55.80;29.08;;;;;;;;;;5072352;28;20023;-75
2020/12/09 09:38:22;;;;;;;66.07;33.53;;;;;;;;;;5072212;28;20036;-75
2020/12/09 09:40:48;;;;;;;74.25;33.10;;;;;;;;;;5072195;28;20028;-76
2020/12/09 09:43:14;;;;;;;80.28;35.75;;;;;;;;;;5072123;28;20021;-75
2020/12/09 09:45:40;;;;;;;67.55;33.30;;;;;;;;;;5072196;28;20024;-75
2020/12/09 09:48:06;;;;;;;66.70;31.33;;;;;;;;;;5072104;28;20036;-79
2020/12/09 09:50:32;;;;;;;63.17;30.38;;;;;;;;;;5072360;28;20487;-74
2020/12/09 09:52:58;;;;;;;60.83;29.17;;;;;;;;;;5072019;28;20028;-75
2020/12/09 09:55:24;;;;;;;57.90;26.60;;;;;;;;;;5072175;28;20025;-75
2020/12/09 09:57:50;;;;;;;49.72;24.35;;;;;;;;;;5072165;28;20024;-74
2020/12/09 10:00:16;;;;;;;54.55;25.63;;;;;;;;;;5071945;28;20020;-81
2020/12/09 10:02:42;;;;;;;50.60;26.48;;;;;;;;;;5072065;28;20078;-75
2020/12/09 10:05:08;;;;;;;59.97;26.27;;;;;;;;;;5071888;28;20021;-76
2020/12/09 10:07:34;;;;;;;52.97;26.50;;;;;;;;;;5072107;28;20024;-76
2020/12/09 10:10:03;;;;;;;55.22;27.10;;;;;;;;;;5054015;28;20064;-75
2020/12/09 10:12:31;;;;;;;50.28;24.02;;;;;;;;;;5071780;28;20090;-77
2020/12/09 10:14:57;;;;;;;54.78;28.88;;;;;;;;;;5071689;28;20495;-75
2020/12/09 10:17:23;;;;;;;59.72;29.55;;;;;;;;;;5071818;28;20035;-79
2020/12/09 10:19:49;;;;;;;56.25;26.92;;;;;;;;;;5075344;28;20017;-75
2020/12/09 10:22:15;;;;;;;53.40;26.02;;;;;;;;;;5075641;28;20036;-75
2020/12/09 10:24:41;;;;;;;51.83;25.23;;;;;;;;;;5075606;28;20021;-76
2020/12/09 10:27:07;;;;;;;64.68;29.05;;;;;;;;;;5075485;28;20376;-77
2020/12/09 10:29:33;;;;;;;69.80;29.58;;;;;;;;;;5057692;28;20032;-79
2020/12/09 10:31:59;;;;;;;66.28;29.35;;;;;;;;;;5075411;28;20074;-78
2020/12/09 10:34:25;;;;;;;59.80;29.70;;;;;;;;;;5075346;28;20024;-75
2020/12/09 10:36:52;;;;;;;54.80;26.17;;;;;;;;;;5075350;28;20028;-79
2020/12/09 10:39:19;;;;;;;52.42;24.85;;;;;;;;;;5075407;28;20038;-78
2020/12/09 10:41:45;;;;;;;49.75;24.48;;;;;;;;;;5075192;28;20032;-78
2020/12/09 10:44:11;;;;;;;46.25;24.05;;;;;;;;;;5057379;28;20028;-75
2020/12/09 10:46:38;;;;;;;52.55;25.63;;;;;;;;;;5075281;28;20380;-79
2020/12/09 10:49:05;;;;;;;61.58;24.25;;;;;;;;;;5074909;28;20094;-78
2020/12/09 10:51:31;;;;;;;52.33;24.67;;;;;;;;;;5075333;28;20023;-77
2020/12/09 10:53:58;;;;;;;46.83;22.98;;;;;;;;;;5075047;28;20024;-77
2020/12/09 10:56:28;;;;;;;45.45;21.88;;;;;;;;;;5074972;28;20021;-81
2020/12/09 10:58:57;;;;;;;52.22;24.13;;;;;;;;;;5074708;28;20027;-78
2020/12/09 11:01:25;;;;;;;47.15;22.08;;;;;;;;;;5074974;28;20055;-79
2020/12/09 11:03:51;;;;;;;47.53;22.30;;;;;;;;;;5056953;28;20388;-74
2020/12/09 11:06:17;;;;;;;47.33;23.08;;;;;;;;;;5074868;28;20025;-75
2020/12/09 11:08:43;;;;;;;49.50;24.98;;;;;;;;;;5074675;28;20032;-81
2020/12/09 11:11:09;;;;;;;49.50;24.48;;;;;;;;;;5074560;28;20041;-80
2020/12/09 11:13:36;;;;;;;48.42;23.55;;;;;;;;;;5056800;28;20453;-80
2020/12/09 11:16:02;;;;;;;46.17;23.33;;;;;;;;;;5074768;28;20407;-80
2020/12/09 11:18:28;;;;;;;49.65;24.23;;;;;;;;;;5074729;28;20028;-80
2020/12/09 11:20:54;;;;;;;55.92;26.60;;;;;;;;;;5056541;28;20066;-76
2020/12/09 11:23:20;;;;;;;53.13;24.45;;;;;;;;;;5074574;28;20016;-82
2020/12/09 11:25:46;;;;;;;50.88;24.05;;;;;;;;;;5074561;28;20035;-74
2020/12/09 11:28:13;;;;;;;45.75;22.65;;;;;;;;;;5056590;28;20033;-79
2020/12/09 11:30:39;;;;;;;68.03;31.50;;;;;;;;;;5073090;28;20020;-78
2020/12/09 11:33:05;;;;;;;53.60;26.67;;;;;;;;;;5074360;28;20077;-78
2020/12/09 11:35:31;;;;;;;57.13;25.98;;;;;;;;;;5056534;28;20021;-77
2020/12/09 11:37:57;;;;;;;54.25;25.60;;;;;;;;;;5074292;28;20047;-76
2020/12/09 11:40:26;;;;;;;51.50;25.00;;;;;;;;;;5073950;28;20029;-80
2020/12/09 11:42:55;;;;;;;54.83;25.63;;;;;;;;;;5056073;28;20021;-74
2020/12/09 11:45:21;;;;;;;52.67;25.55;;;;;;;;;;5074091;28;20020;-77
2020/12/09 11:47:47;;;;;;;58.53;24.27;;;;;;;;;;5074018;28;20032;-80
2020/12/09 11:50:13;;;;;;;48.78;24.92;;;;;;;;;;5074135;28;20032;-76
2020/12/09 11:52:39;;;;;;;52.90;25.92;;;;;;;;;;5074014;28;20020;-79
2020/12/09 11:55:05;;;;;;;49.08;24.95;;;;;;;;;;5076912;28;20043;-76
2020/12/09 11:57:31;;;;;;;51.15;24.63;;;;;;;;;;5076097;28;20065;-77
2020/12/09 11:59:57;;;;;;;48.10;22.20;;;;;;;;;;5093971;28;20047;-76
2020/12/09 12:02:24;;;;;;;46.53;24.27;;;;;;;;;;5094150;28;20028;-76
2020/12/09 12:04:52;;;;;;;50.33;22.92;;;;;;;;;;5088419;28;20016;-77
2020/12/09 12:07:19;;;;;;;46.33;21.73;;;;;;;;;;5073716;28;20472;-74
2020/12/09 12:09:45;;;;;;;42.72;22.25;;;;;;;;;;5073373;28;20404;-77
2020/12/09 12:12:11;;;;;;;45.70;21.83;;;;;;;;;;5073658;28;20099;-77
2020/12/09 12:14:37;;;;;;;43.83;21.70;;;;;;;;;;5073482;28;20078;-79
2020/12/09 12:17:08;;;;;;;42.95;21.60;;;;;;;;;;5073656;28;20020;-75
2020/12/09 12:19:34;;;;;;;47.08;23.35;;;;;;;;;;5073781;28;20498;-78
2020/12/09 12:22:00;;;;;;;49.60;23.17;;;;;;;;;;5073761;28;20025;-78
2020/12/09 12:24:26;;;;;;;48.05;24.20;;;;;;;;;;5073375;28;20025;-80
2020/12/09 12:26:52;;;;;;;48.42;23.63;;;;;;;;;;5073332;28;20027;-75
2020/12/09 12:29:18;;;;;;;50.70;23.70;;;;;;;;;;5072963;28;20040;-77
2020/12/09 12:31:44;;;;;;;51.22;25.02;;;;;;;;;;5073219;28;20504;-78
2020/12/09 12:34:10;;;;;;;51.25;23.08;;;;;;;;;;5073190;28;20544;-78
2020/12/09 12:36:36;;;;;;;54.45;25.17;;;;;;;;;;5073107;28;20055;-75
2020/12/09 12:39:03;;;;;;;57.45;25.80;;;;;;;;;;5072980;28;20031;-79
2020/12/09 12:41:29;;;;;;;52.92;25.17;;;;;;;;;;5072979;28;20020;-75
2020/12/09 12:43:55;;;;;;;54.85;26.13;;;;;;;;;;5072953;28;20021;-77
2020/12/09 12:46:21;;;;;;;50.83;23.77;;;;;;;;;;5073006;28;20100;-76
2020/12/09 12:48:47;;;;;;;50.40;24.95;;;;;;;;;;5072765;28;20067;-76
2020/12/09 12:51:19;;;;;;;53.08;24.65;;;;;;;;;;5072800;28;20036;-79
2020/12/09 12:53:45;;;;;;;49.75;23.02;;;;;;;;;;5072815;28;20388;-77
2020/12/09 12:56:16;;;;;;;49.45;24.33;;;;;;;;;;5073077;28;20032;-80
2020/12/09 12:58:42;;;;;;;41.75;22.15;;;;;;;;;;5073103;28;20024;-80
2020/12/09 13:01:08;;;;;;;48.85;22.30;;;;;;;;;;5072717;28;20020;-80
2020/12/09 13:03:34;;;;;;;45.40;22.05;;;;;;;;;;5072491;28;20032;-77
2020/12/09 13:06:01;;;;;;;47.20;22.38;;;;;;;;;;5072825;28;20024;-76
2020/12/09 13:08:27;;;;;;;48.42;22.55;;;;;;;;;;5054509;28;20078;-81
2020/12/09 13:10:53;;;;;;;45.53;23.00;;;;;;;;;;5072304;28;20051;-80
2020/12/09 13:13:20;;;;;;;45.47;22.70;;;;;;;;;;5072593;28;20051;-79
2020/12/09 13:15:46;;;;;;;46.15;22.17;;;;;;;;;;5072874;28;20029;-80
2020/12/09 13:18:12;;;;;;;50.20;22.38;;;;;;;;;;5072532;28;20027;-80
2020/12/09 13:20:38;;;;;;;45.08;21.55;;;;;;;;;;5072377;28;20033;-81
2020/12/09 13:23:04;;;;;;;42.78;21.65;;;;;;;;;;5054259;28;20108;-76
2020/12/09 13:25:30;;;;;;;46.95;23.00;;;;;;;;;;5072620;28;20025;-79
2020/12/09 13:27:57;;;;;;;45.67;21.48;;;;;;;;;;5072170;28;20028;-82
2020/12/09 13:30:23;;;;;;;47.53;23.05;;;;;;;;;;5054452;28;20476;-78
2020/12/09 13:32:49;;;;;;;49.80;22.35;;;;;;;;;;5072309;28;20017;-81
2020/12/09 13:35:15;;;;;;;43.05;21.13;;;;;;;;;;5072309;28;20400;-80
2020/12/09 13:37:41;;;;;;;44.75;21.38;;;;;;;;;;5072484;28;20021;-80
2020/12/09 13:40:07;;;;;;;44.33;21.88;;;;;;;;;;5072509;28;20025;-79
2020/12/09 13:42:33;;;;;;;44.05;22.33;;;;;;;;;;5072330;28;20068;-80
2020/12/09 13:44:59;;;;;;;44.65;21.83;;;;;;;;;;5072261;28;20062;-79
2020/12/09 13:47:25;;;;;;;47.70;23.13;;;;;;;;;;5072597;28;20439;-76
2020/12/09 13:49:51;;;;;;;44.17;23.27;;;;;;;;;;5071943;28;20043;-81
2020/12/09 13:52:17;;;;;;;43.13;23.10;;;;;;;;;;5072004;28;20074;-79
2020/12/09 13:54:43;;;;;;;53.67;26.55;;;;;;;;;;5075292;28;20099;-77
2020/12/09 13:57:09;;;;;;;54.50;25.70;;;;;;;;;;5076081;28;20028;-80
2020/12/09 13:59:36;;;;;;;51.75;24.90;;;;;;;;;;5075727;28;20426;-80
2020/12/09 14:02:02;;;;;;;54.05;26.30;;;;;;;;;;5076308;28;20480;-80
2020/12/09 14:04:28;;;;;;;56.80;24.20;;;;;;;;;;5075873;28;20029;-79
2020/12/09 14:06:58;;;;;;;49.47;23.10;;;;;;;;;;5075744;28;20020;-77
2020/12/09 14:09:25;;;;;;;50.65;24.02;;;;;;;;;;5095162;28;20032;-79
2020/12/09 14:11:51;;;;;;;44.55;22.70;;;;;;;;;;5095879;28;20123;-80
2020/12/09 14:14:17;;;;;;;42.08;21.90;;;;;;;;;;5092184;28;20380;-82
2020/12/09 14:16:43;;;;;;;44.15;23.05;;;;;;;;;;5093663;28;20488;-78